Time,TemperatureF,DewpointF,PressureIn,WindDirection,WindDirectionDegrees,WindSpeedMPH,WindSpeedGustMPH,Humidity,HourlyPrecipIn,Conditions,Clouds,dailyrainin,SoftwareType,DateUTC
2013-04-10 00:02:00,75.0,65.0,29.75,SSW,211,4.0,10.0,72,0.00,,,0.00,,2013-04-10 05:02:00,
2013-04-10 00:13:00,75.0,65.0,29.75,SSW,211,4.0,10.0,72,0.00,,,0.00,,2013-04-10 05:13:00,
2013-04-10 00:23:00,76.0,66.0,29.75,SSE,148,6.0,13.0,71,0.00,,,0.00,,2013-04-10 05:23:00,
2013-04-10 00:33:00,76.0,66.0,29.75,SSE,163,7.0,18.0,71,0.00,,,0.00,,2013-04-10 05:33:00,
2013-04-10 00:42:00,76.0,66.0,29.75,SSE,163,7.0,18.0,71,0.00,,,0.00,,2013-04-10 05:42:00,
2013-04-10 00:53:00,76.0,66.0,29.75,South,179,8.0,14.0,71,0.00,,,0.00,,2013-04-10 05:53:00,
2013-04-10 01:03:00,76.0,66.0,29.75,SSE,165,15.0,22.0,71,0.00,,,0.00,,2013-04-10 06:03:00,
2013-04-10 01:12:00,76.0,66.0,29.74,SSE,160,11.0,25.0,71,0.00,,,0.00,,2013-04-10 06:12:00,
2013-04-10 01:22:00,76.0,66.0,29.74,SSE,160,11.0,25.0,71,0.00,,,0.00,,2013-04-10 06:22:00,
2013-04-10 01:32:00,76.0,66.0,29.74,SSE,165,8.0,18.0,71,0.00,,,0.00,,2013-04-10 06:32:00,
2013-04-10 01:42:00,76.0,66.0,29.74,SSE,165,8.0,18.0,71,0.00,,,0.00,,2013-04-10 06:42:00,
2013-04-10 01:52:00,76.0,66.0,29.74,SSE,158,9.0,19.0,72,0.00,,,0.00,,2013-04-10 06:52:00,
2013-04-10 02:02:00,75.0,66.0,29.73,SSE,155,8.0,16.0,73,0.00,,,0.00,,2013-04-10 07:02:00,
2013-04-10 02:12:00,75.0,66.0,29.73,SSE,155,8.0,16.0,73,0.00,,,0.00,,2013-04-10 07:12:00,
2013-04-10 02:22:00,75.0,66.0,29.73,SSE,165,6.0,19.0,73,0.00,,,0.00,,2013-04-10 07:22:00,
2013-04-10 02:32:00,75.0,66.0,29.73,South,181,12.0,23.0,73,0.00,,,0.00,,2013-04-10 07:32:00,
2013-04-10 02:42:00,75.0,66.0,29.73,South,181,12.0,23.0,73,0.00,,,0.00,,2013-04-10 07:42:00,
2013-04-10 02:52:00,75.0,66.0,29.72,SSE,166,5.0,19.0,73,0.00,,,0.00,,2013-04-10 07:52:00,
2013-04-10 03:02:00,75.0,66.0,29.72,SSE,162,7.0,21.0,73,0.00,,,0.00,,2013-04-10 08:02:00,
2013-04-10 03:12:00,75.0,66.0,29.72,SSE,162,7.0,21.0,73,0.00,,,0.00,,2013-04-10 08:12:00,
2013-04-10 03:22:00,75.0,66.0,29.73,South,189,9.0,22.0,73,0.00,,,0.00,,2013-04-10 08:22:00,
2013-04-10 03:32:00,75.0,66.0,29.72,SSE,150,7.0,14.0,73,0.00,,,0.00,,2013-04-10 08:32:00,
2013-04-10 03:42:00,75.0,66.0,29.72,SSE,150,7.0,14.0,73,0.00,,,0.00,,2013-04-10 08:42:00,
2013-04-10 03:52:00,75.0,66.0,29.72,SE,141,9.0,19.0,73,0.00,,,0.00,,2013-04-10 08:52:00,
2013-04-10 04:02:00,75.0,66.0,29.73,SSW,211,8.0,20.0,73,0.00,,,0.00,,2013-04-10 09:02:00,
2013-04-10 04:12:00,74.0,65.0,29.73,SSW,210,2.0,13.0,73,0.00,,,0.00,,2013-04-10 09:12:00,
2013-04-10 04:22:00,74.0,65.0,29.73,SSW,210,2.0,13.0,73,0.00,,,0.00,,2013-04-10 09:22:00,
2013-04-10 04:32:00,74.0,65.0,29.73,SW,215,5.0,11.0,74,0.00,,,0.00,,2013-04-10 09:32:00,
2013-04-10 04:43:00,74.0,65.0,29.73,SW,215,5.0,11.0,74,0.00,,,0.00,,2013-04-10 09:43:00,
2013-04-10 04:53:00,74.0,66.0,29.74,SSE,165,3.0,7.0,75,0.00,,,0.00,,2013-04-10 09:53:00,
2013-04-10 05:03:00,74.0,66.0,29.74,South,179,3.0,8.0,75,0.00,,,0.00,,2013-04-10 10:03:00,
2013-04-10 05:12:00,74.0,66.0,29.75,SSW,208,6.0,12.0,76,0.00,,,0.00,,2013-04-10 10:12:00,
2013-04-10 05:23:00,74.0,66.0,29.75,SSW,208,6.0,12.0,76,0.00,,,0.00,,2013-04-10 10:23:00,
2013-04-10 05:33:00,74.0,66.0,29.75,SSE,160,4.0,11.0,76,0.00,,,0.00,,2013-04-10 10:33:00,
2013-04-10 05:42:00,74.0,66.0,29.75,SSE,160,4.0,11.0,76,0.00,,,0.00,,2013-04-10 10:42:00,
2013-04-10 05:52:00,73.0,65.0,29.75,SSE,150,3.0,14.0,76,0.00,,,0.00,,2013-04-10 10:52:00,
2013-04-10 06:02:00,73.0,65.0,29.74,SSE,167,3.0,8.0,77,0.00,,,0.00,,2013-04-10 11:02:00,
2013-04-10 06:12:00,73.0,65.0,29.74,SSE,167,3.0,8.0,77,0.00,,,0.00,,2013-04-10 11:12:00,
2013-04-10 06:22:00,73.0,65.0,29.74,SSE,156,4.0,12.0,77,0.00,,,0.00,,2013-04-10 11:22:00,
2013-04-10 06:32:00,73.0,66.0,29.74,SSE,158,5.0,10.0,78,0.00,,,0.00,,2013-04-10 11:32:00,
2013-04-10 06:42:00,73.0,66.0,29.74,SSE,158,5.0,10.0,78,0.00,,,0.00,,2013-04-10 11:42:00,
2013-04-10 06:53:00,72.0,65.0,29.74,SSE,152,6.0,10.0,79,0.00,,,0.00,,2013-04-10 11:53:00,
2013-04-10 07:03:00,72.0,65.0,29.75,SSE,149,5.0,12.0,78,0.00,,,0.00,,2013-04-10 12:03:00,
2013-04-10 07:12:00,72.0,65.0,29.75,SSE,149,5.0,12.0,78,0.00,,,0.00,,2013-04-10 12:12:00,
2013-04-10 07:22:00,73.0,66.0,29.76,South,172,5.0,13.0,78,0.00,,,0.00,,2013-04-10 12:22:00,
2013-04-10 07:33:00,73.0,65.0,29.77,SE,139,6.0,11.0,77,0.00,,,0.00,,2013-04-10 12:33:00,
2013-04-10 07:42:00,73.0,65.0,29.77,SE,139,6.0,11.0,77,0.00,,,0.00,,2013-04-10 12:42:00,
2013-04-10 07:52:00,73.0,66.0,29.77,SSE,150,6.0,11.0,78,0.00,,,0.00,,2013-04-10 12:52:00,
2013-04-10 08:02:00,73.0,66.0,29.77,SSW,212,5.0,13.0,78,0.00,,,0.00,,2013-04-10 13:02:00,
2013-04-10 08:12:00,73.0,66.0,29.77,SSW,212,5.0,13.0,78,0.00,,,0.00,,2013-04-10 13:12:00,
2013-04-10 08:23:00,72.0,65.0,29.76,SE,124,5.0,12.0,79,0.00,,,0.00,,2013-04-10 13:23:00,
2013-04-10 08:32:00,73.0,66.0,29.76,SSE,154,6.0,12.0,79,0.00,,,0.00,,2013-04-10 13:32:00,
2013-04-10 08:43:00,73.0,66.0,29.76,SSE,154,6.0,12.0,79,0.00,,,0.00,,2013-04-10 13:43:00,
2013-04-10 08:53:00,73.0,66.0,29.76,SSE,155,7.0,13.0,78,0.00,,,0.00,,2013-04-10 13:53:00,
2013-04-10 09:02:00,74.0,66.0,29.77,SE,146,7.0,14.0,77,0.00,,,0.00,,2013-04-10 14:02:00,
2013-04-10 09:12:00,74.0,66.0,29.77,SE,146,7.0,14.0,77,0.00,,,0.00,,2013-04-10 14:12:00,
2013-04-10 09:22:00,74.0,66.0,29.76,SSE,148,6.0,13.0,76,0.00,,,0.00,,2013-04-10 14:22:00,
2013-04-10 09:32:00,74.0,66.0,29.76,SE,125,9.0,16.0,75,0.00,,,0.00,,2013-04-10 14:32:00,
2013-04-10 09:42:00,75.0,66.0,29.75,South,175,6.0,19.0,74,0.00,,,0.00,,2013-04-10 14:42:00,
2013-04-10 09:52:00,75.0,66.0,29.75,South,175,6.0,19.0,74,0.00,,,0.00,,2013-04-10 14:52:00,
2013-04-10 10:02:00,75.0,65.0,29.75,SE,142,11.0,23.0,72,0.00,,,0.00,,2013-04-10 15:02:00,
2013-04-10 10:12:00,75.0,65.0,29.75,SE,142,11.0,23.0,72,0.00,,,0.00,,2013-04-10 15:12:00,
2013-04-10 10:22:00,77.0,66.0,29.75,SSE,158,9.0,20.0,70,0.00,,,0.00,,2013-04-10 15:22:00,
2013-04-10 10:32:00,77.0,66.0,29.75,SSE,152,10.0,21.0,68,0.00,,,0.00,,2013-04-10 15:32:00,
2013-04-10 10:42:00,77.0,66.0,29.75,SSE,152,10.0,21.0,68,0.00,,,0.00,,2013-04-10 15:42:00,
2013-04-10 10:52:00,78.0,66.0,29.75,South,177,9.0,19.0,66,0.00,,,0.00,,2013-04-10 15:52:00,
2013-04-10 11:03:00,78.0,66.0,29.75,SSW,195,10.0,19.0,66,0.00,,,0.00,,2013-04-10 16:03:00,
2013-04-10 11:13:00,78.0,66.0,29.75,SSW,195,10.0,19.0,66,0.00,,,0.00,,2013-04-10 16:13:00,
2013-04-10 11:23:00,78.0,65.0,29.75,SE,137,10.0,19.0,65,0.00,,,0.00,,2013-04-10 16:23:00,
2013-04-10 11:33:00,79.0,65.0,29.74,SSE,158,9.0,21.0,62,0.00,,,0.00,,2013-04-10 16:33:00,
2013-04-10 11:43:00,79.0,65.0,29.74,SSE,158,9.0,21.0,62,0.00,,,0.00,,2013-04-10 16:43:00,
2013-04-10 11:53:00,79.0,64.0,29.74,SSE,163,12.0,18.0,61,0.00,,,0.00,,2013-04-10 16:53:00,
2013-04-10 12:02:00,80.0,65.0,29.73,South,176,10.0,26.0,60,0.00,,,0.00,,2013-04-10 17:02:00,
2013-04-10 12:12:00,79.0,64.0,29.72,SE,145,11.0,23.0,60,0.00,,,0.00,,2013-04-10 17:12:00,
2013-04-10 12:22:00,79.0,64.0,29.72,SE,145,11.0,23.0,60,0.00,,,0.00,,2013-04-10 17:22:00,
2013-04-10 12:33:00,80.0,64.0,29.71,South,188,11.0,24.0,58,0.00,,,0.00,,2013-04-10 17:33:00,
2013-04-10 12:42:00,80.0,64.0,29.71,South,188,11.0,24.0,58,0.00,,,0.00,,2013-04-10 17:42:00,
2013-04-10 12:52:00,80.0,64.0,29.71,South,174,9.0,18.0,58,0.00,,,0.00,,2013-04-10 17:52:00,
2013-04-10 13:02:00,80.0,63.0,29.70,South,174,13.0,29.0,57,0.00,,,0.00,,2013-04-10 18:02:00,
2013-04-10 13:12:00,80.0,63.0,29.70,South,174,13.0,29.0,57,0.00,,,0.00,,2013-04-10 18:12:00,
2013-04-10 13:23:00,81.0,64.0,29.70,SE,133,14.0,28.0,57,0.00,,,0.00,,2013-04-10 18:23:00,
2013-04-10 13:33:00,81.0,64.0,29.69,SSE,162,11.0,21.0,57,0.00,,,0.00,,2013-04-10 18:33:00,
2013-04-10 13:42:00,81.0,64.0,29.69,SSE,162,11.0,21.0,57,0.00,,,0.00,,2013-04-10 18:42:00,
2013-04-10 13:52:00,82.0,65.0,29.68,SSE,167,7.0,17.0,57,0.00,,,0.00,,2013-04-10 18:52:00,
2013-04-10 14:03:00,81.0,64.0,29.68,South,181,10.0,20.0,57,0.00,,,0.00,,2013-04-10 19:03:00,
2013-04-10 14:12:00,81.0,64.0,29.68,South,181,10.0,20.0,57,0.00,,,0.00,,2013-04-10 19:12:00,
2013-04-10 14:22:00,81.0,64.0,29.67,SE,143,8.0,21.0,57,0.00,,,0.00,,2013-04-10 19:22:00,
2013-04-10 14:33:00,82.0,65.0,29.66,SSE,148,11.0,20.0,56,0.00,,,0.00,,2013-04-10 19:33:00,
2013-04-10 14:42:00,82.0,65.0,29.66,SSE,148,11.0,20.0,56,0.00,,,0.00,,2013-04-10 19:42:00,
2013-04-10 14:53:00,81.0,65.0,29.64,SSE,147,7.0,18.0,59,0.00,,,0.00,,2013-04-10 19:53:00,
2013-04-10 15:02:00,82.0,66.0,29.64,SE,136,8.0,23.0,59,0.00,,,0.00,,2013-04-10 20:02:00,
2013-04-10 15:12:00,81.0,65.0,29.62,SE,127,9.0,20.0,58,0.00,,,0.00,,2013-04-10 20:12:00,
2013-04-10 15:23:00,81.0,65.0,29.62,SE,127,9.0,20.0,58,0.00,,,0.00,,2013-04-10 20:23:00,
2013-04-10 15:33:00,82.0,66.0,29.62,SSW,197,10.0,23.0,58,0.00,,,0.00,,2013-04-10 20:33:00,
2013-04-10 15:42:00,81.0,65.0,29.61,ESE,123,8.0,20.0,59,0.00,,,0.00,,2013-04-10 20:42:00,
2013-04-10 15:52:00,81.0,65.0,29.61,ESE,123,8.0,20.0,59,0.00,,,0.00,,2013-04-10 20:52:00,
2013-04-10 16:02:00,80.0,66.0,29.60,SE,129,8.0,19.0,63,0.00,,,0.00,,2013-04-10 21:02:00,
2013-04-10 16:12:00,80.0,66.0,29.60,SE,129,8.0,19.0,63,0.00,,,0.00,,2013-04-10 21:12:00,
2013-04-10 16:22:00,78.0,66.0,29.58,SSE,155,8.0,18.0,66,0.00,,,0.00,,2013-04-10 21:22:00,
2013-04-10 16:33:00,78.0,66.0,29.57,SE,132,9.0,23.0,67,0.00,,,0.00,,2013-04-10 21:33:00,
2013-04-10 16:42:00,78.0,66.0,29.57,SE,132,9.0,23.0,67,0.00,,,0.00,,2013-04-10 21:42:00,
2013-04-10 16:53:00,77.0,66.0,29.56,SSE,152,13.0,27.0,69,0.00,,,0.00,,2013-04-10 21:53:00,
2013-04-10 17:03:00,74.0,66.0,29.57,SSE,154,8.0,19.0,77,0.00,,,0.00,,2013-04-10 22:03:00,
2013-04-10 17:12:00,73.0,66.0,29.59,SSW,197,9.0,17.0,80,0.00,,,0.00,,2013-04-10 22:12:00,
2013-04-10 17:23:00,73.0,66.0,29.59,SSW,197,9.0,17.0,80,0.00,,,0.00,,2013-04-10 22:23:00,
2013-04-10 17:33:00,72.0,67.0,29.58,SSE,158,6.0,15.0,84,0.01,,,0.01,,2013-04-10 22:33:00,
2013-04-10 17:42:00,72.0,67.0,29.58,SSE,158,6.0,15.0,84,0.01,,,0.01,,2013-04-10 22:42:00,
2013-04-10 17:53:00,71.0,67.0,29.62,SSE,154,9.0,15.0,86,0.02,,,0.02,,2013-04-10 22:53:00,
2013-04-10 18:02:00,58.0,53.0,29.64,WNW,302,12.0,32.0,84,0.05,,,0.05,,2013-04-10 23:02:00,
2013-04-10 18:12:00,58.0,53.0,29.64,WNW,302,12.0,32.0,84,0.05,,,0.05,,2013-04-10 23:12:00,
2013-04-10 18:22:00,51.0,48.0,29.70,NW,320,16.0,31.0,88,0.10,,,0.10,,2013-04-10 23:22:00,
2013-04-10 18:33:00,49.0,47.0,29.67,NNW,333,2.0,12.0,93,0.12,,,0.13,,2013-04-10 23:33:00,
2013-04-10 18:42:00,49.0,47.0,29.67,NNW,333,2.0,12.0,93,0.12,,,0.13,,2013-04-10 23:42:00,
2013-04-10 18:53:00,49.0,47.0,29.66,NW,314,2.0,10.0,94,0.14,,,0.16,,2013-04-10 23:53:00,
2013-04-10 19:02:00,50.0,49.0,29.69,WNW,287,4.0,6.0,95,0.19,,,0.25,,2013-04-11 00:02:00,
2013-04-10 19:12:00,50.0,49.0,29.69,WNW,287,4.0,6.0,95,0.19,,,0.25,,2013-04-11 00:12:00,
2013-04-10 19:22:00,50.0,49.0,29.70,NNW,328,8.0,15.0,95,0.25,,,0.35,,2013-04-11 00:22:00,
2013-04-10 19:32:00,49.0,48.0,29.65,WNW,297,2.0,7.0,95,0.31,,,0.44,,2013-04-11 00:32:00,
2013-04-10 19:42:00,49.0,48.0,29.64,NE,53,0.0,5.0,96,0.32,,,0.48,,2013-04-11 00:42:00,
2013-04-10 19:53:00,49.0,48.0,29.64,NE,53,0.0,5.0,96,0.32,,,0.48,,2013-04-11 00:53:00,
2013-04-10 20:02:00,49.0,48.0,29.66,West,274,8.0,13.0,95,0.24,,,0.51,,2013-04-11 01:02:00,
2013-04-10 20:12:00,48.0,47.0,29.68,WNW,283,3.0,6.0,95,0.16,,,0.51,,2013-04-11 01:12:00,
2013-04-10 20:22:00,48.0,47.0,29.68,WNW,283,3.0,6.0,95,0.16,,,0.51,,2013-04-11 01:22:00,
2013-04-10 20:32:00,48.0,47.0,29.66,WNW,297,4.0,12.0,95,0.07,,,0.51,,2013-04-11 01:32:00,
2013-04-10 20:42:00,48.0,47.0,29.66,WNW,297,4.0,12.0,95,0.07,,,0.51,,2013-04-11 01:42:00,
2013-04-10 20:52:00,47.0,46.0,29.64,WNW,293,1.0,3.0,95,0.04,,,0.52,,2013-04-11 01:52:00,
2013-04-10 21:02:00,47.0,46.0,29.68,WSW,257,5.0,10.0,95,0.01,,,0.52,,2013-04-11 02:02:00,
2013-04-10 21:12:00,47.0,46.0,29.70,WNW,302,5.0,11.0,95,0.01,,,0.52,,2013-04-11 02:12:00,
2013-04-10 21:22:00,47.0,46.0,29.70,WNW,302,5.0,11.0,95,0.01,,,0.52,,2013-04-11 02:22:00,
2013-04-10 21:32:00,46.0,45.0,29.72,NW,314,7.0,11.0,95,0.01,,,0.52,,2013-04-11 02:32:00,
2013-04-10 21:42:00,46.0,45.0,29.72,NW,314,7.0,11.0,95,0.01,,,0.52,,2013-04-11 02:42:00,
2013-04-10 21:53:00,46.0,44.0,29.70,NNW,329,10.0,16.0,94,0.00,,,0.52,,2013-04-11 02:53:00,
2013-04-10 22:02:00,45.0,43.0,29.68,NW,321,10.0,23.0,93,0.00,,,0.52,,2013-04-11 03:02:00,
2013-04-10 22:12:00,44.0,42.0,29.72,WNW,302,7.0,22.0,92,0.00,,,0.52,,2013-04-11 03:12:00,
2013-04-10 22:22:00,44.0,42.0,29.72,WNW,302,7.0,22.0,92,0.00,,,0.52,,2013-04-11 03:22:00,
2013-04-10 22:33:00,44.0,42.0,29.74,NW,308,7.0,21.0,92,0.00,,,0.52,,2013-04-11 03:33:00,
2013-04-10 22:43:00,44.0,42.0,29.75,WNW,295,7.0,13.0,92,0.00,,,0.52,,2013-04-11 03:43:00,
2013-04-10 22:53:00,44.0,42.0,29.75,WNW,295,7.0,13.0,92,0.00,,,0.52,,2013-04-11 03:53:00,
2013-04-10 23:03:00,43.0,41.0,29.75,NW,306,10.0,23.0,91,0.00,,,0.52,,2013-04-11 04:03:00,
2013-04-10 23:12:00,43.0,41.0,29.76,NNW,329,5.0,16.0,92,0.00,,,0.52,,2013-04-11 04:12:00,
2013-04-10 23:22:00,43.0,41.0,29.76,NNW,329,5.0,16.0,92,0.00,,,0.52,,2013-04-11 04:22:00,
2013-04-10 23:33:00,43.0,41.0,29.78,West,266,7.0,15.0,93,0.00,,,0.52,,2013-04-11 04:33:00,
2013-04-10 23:42:00,43.0,41.0,29.78,West,266,7.0,15.0,93,0.00,,,0.52,,2013-04-11 04:42:00,
2013-04-10 23:53:00,43.0,41.0,29.78,West,271,5.0,15.0,92,0.00,,,0.52,,2013-04-11 04:53:00,